LFMNLIMZ

Guest
Details From LFMN - Nice/Cote d'Azur
To LIMZ - LEVALDIGI
Flight Number -
Tags generated
Created
Modified
Stats Distance 56 nm / 104 km
Max Altitude 2,400 ft / 732 m
Waypoints 3
Social Downloads 1
Likes 0
Share VATSIM

Download

Looking for another format? Having issues loading an existing format? Contact us
Advertisement - Login to hide

Notes

Basic altitude profile: - Ascent Rate: 2500ft/min - Ascent Speed: 250kts - Cruise Altitude: 35000ft - Cruise Speed: 420kts - Descent Rate: 1500ft/min - Descent Speed: 250kts

Route

LFMN NIZ LIMZ

ID Type Via Altitude Latitude Longitude Leg Dist Tot Dist Heading (true) Name
O LFMN APT - 0 ft / 0 m 43.65798˚ 7.21536˚ - 0 nm - Nice/Cote d'Azur
NIZ VOR - 2,400 ft / 732 m 43.77064˚ 7.25439˚ 6 nm 6 nm 14° / 14° NICE COTE D AZUR VOR-DME
O LIMZ APT - 0 ft / 0 m 44.54760˚ 7.62332˚ 49 nm 56 nm 19° / 19° LEVALDIGI

Altitude Profile

Advertisement - Login to hide

LFMN

Details ICAO LFMN (NCE)
Name Nice/Cote d'Azur
Region France
Timezone Unknown (UTC+0.0)
Stats Elevation 12 ft / 4 m (AMSL)
Location 43.657981° 7.215362°
Runways 2
Magnetic Variation 2.065° E

METAR

LFMN 211300Z 10011KT 9999 FEW050 BKN140 23/13 Q1011 NOSIG

Decode

TAF

TAF LFMN 210800Z 2109/2215 33010KT 9999 FEW060 SCT080 BECMG 2109/2111 12010KT TEMPO 2113/2118 22010KT PROB30 TEMPO 2113/2118 SHRA SCT060TCU BECMG 2118/2120 33010KT TEMPO 2118/2215 SHRA BKN040 SCT060TCU TEMPO 2121/2204 VRB15G25KT 4000 TSRA BKN030 SCT060CB BECMG 2209/2211 14006KT

Decode

Departure Runways

ID Width Length Bearing (true) Bearing (mag) Surface Threshold Offset Overrun Length
04L 148 ft / 45 m 8,427 ft / 2,569 m 44.85° 42.79° Asphalt 0 ft / 0 m 131 ft / 40 m
04R 148 ft / 45 m 9,720 ft / 2,963 m 44.60° 42.54° Asphalt 0 ft / 0 m 427 ft / 130 m
22L 148 ft / 45 m 9,720 ft / 2,963 m 224.62° 222.56° Asphalt 0 ft / 0 m 525 ft / 160 m
22R 148 ft / 45 m 8,427 ft / 2,569 m 224.87° 222.81° Asphalt 0 ft / 0 m 492 ft / 150 m

LIMZ

Details ICAO LIMZ (CUF)
Name LEVALDIGI
Region Italy
Timezone Europe/Rome (UTC+2.0)
Stats Elevation 1,267 ft / 386 m (AMSL)
Location 44.547603° 7.623322°
Runways 1
Magnetic Variation 2.163° E

METAR

LIMZ 211250Z VRB03KT 9999 SCT025 SCT065 20/13 Q1016

Decode

TAF

TAF LIMZ 211100Z 2112/2212 VRB05KT 9999 BKN050 TEMPO 2112/2118 TSRA BECMG 2122/2124 RA

Decode

Destination Runways

ID Width Length Bearing (true) Bearing (mag) Surface Threshold Offset Overrun Length
03 148 ft / 45 m 6,903 ft / 2,104 m 32.49° 30.33° Asphalt 0 ft / 0 m 696 ft / 212 m
21 148 ft / 45 m 6,903 ft / 2,104 m 212.50° 210.34° Asphalt 0 ft / 0 m 581 ft / 177 m

Approach Navaids

Runway Type Ident Frequency Range Bearing (true) Bearing (mag) Slope Elevation
21 Localiser LEV 110.95 MHz 18 nm / 33 km 212.50° 210.33° - 1,267 ft / 386 m (AMSL)
21 Glidescope LEV 110.95 MHz 10 nm / 19 km 212.50° 210.33° 3.00° 1,267 ft / 386 m (AMSL)

Popular Alternatives